createdAt,value
2023-06-24T00:02:56.201Z,100877.51
2023-06-24T00:06:27.431Z,100877.36
2023-06-24T00:09:54.753Z,100872.09
2023-06-24T00:13:23.795Z,100877.34
2023-06-24T00:16:52.847Z,100874.65
2023-06-24T00:20:21.566Z,100879.50
2023-06-24T00:23:50.807Z,100876.05
2023-06-24T00:27:18.358Z,100876.06
2023-06-24T00:30:45.296Z,100875.36
2023-06-24T00:34:13.811Z,100876.93
2023-06-24T00:37:41.288Z,100879.52
2023-06-24T00:41:08.962Z,100879.77
2023-06-24T00:44:38.867Z,100876.68
2023-06-24T00:48:06.468Z,100885.02
2023-06-24T00:51:35.451Z,100888.52
2023-06-24T00:55:04.766Z,100884.52
2023-06-24T00:58:34.298Z,100883.66
2023-06-24T01:02:03.306Z,100881.44
2023-06-24T01:05:31.411Z,100887.50
2023-06-24T01:08:58.819Z,100890.69
2023-06-24T01:12:25.607Z,100887.11
2023-06-24T01:15:53.580Z,100887.74
2023-06-24T01:19:39.625Z,100887.77
2023-06-24T01:23:45.906Z,100894.21
2023-06-24T01:27:47.601Z,100896.08
2023-06-24T01:31:39.944Z,100906.02
2023-06-24T01:35:14.255Z,100904.84
2023-06-24T01:38:46.620Z,100900.04
2023-06-24T01:42:17.540Z,100898.35
2023-06-24T01:45:49.393Z,100898.74
2023-06-24T01:49:18.486Z,100905.94
2023-06-24T01:52:48.253Z,100906.52
2023-06-24T01:56:17.167Z,100906.69
2023-06-24T01:59:48.676Z,100910.18
2023-06-24T02:03:17.367Z,100910.67
2023-06-24T02:06:45.935Z,100911.08
2023-06-24T02:10:14.546Z,100910.77
2023-06-24T02:13:43.145Z,100907.93
2023-06-24T02:17:25.969Z,100909.23
2023-06-24T02:20:54.403Z,100913.95
2023-06-24T02:24:23.324Z,100912.02
2023-06-24T02:27:51.066Z,100912.07
2023-06-24T02:31:18.994Z,100914.69
2023-06-24T02:34:46.406Z,100913.09
2023-06-24T02:38:13.307Z,100916.19
2023-06-24T02:41:39.946Z,100912.48
2023-06-24T02:45:11.050Z,100911.84
2023-06-24T02:48:40.374Z,100916.61
2023-06-24T02:52:08.277Z,100918.68
2023-06-24T02:55:37.545Z,100920.63
2023-06-24T02:59:04.922Z,100923.29
2023-06-24T03:02:32.389Z,100922.78
2023-06-24T03:06:00.028Z,100920.27
2023-06-24T03:09:31.210Z,100925.92
2023-06-24T03:12:57.926Z,100928.59
2023-06-24T03:16:32.275Z,100937.65
2023-06-24T03:20:09.930Z,100939.64
2023-06-24T03:23:37.271Z,100943.35
2023-06-24T03:27:04.171Z,100946.45
2023-06-24T03:30:37.612Z,100946.05
2023-06-24T03:34:05.091Z,100943.85
2023-06-24T03:37:32.553Z,100947.60
2023-06-24T03:41:00.063Z,100951.91
2023-06-24T03:44:27.666Z,100960.23
2023-06-24T03:47:54.662Z,100965.09
2023-06-24T03:51:21.878Z,100970.95
2023-06-24T03:54:49.258Z,100972.45
2023-06-24T03:58:18.018Z,100978.20
2023-06-24T04:01:44.563Z,100989.28
2023-06-24T04:05:12.802Z,100999.38
2023-06-24T04:08:41.340Z,101007.08
2023-06-24T04:12:08.956Z,101012.40
2023-06-24T04:15:35.951Z,101015.42
2023-06-24T04:19:02.879Z,101014.17
2023-06-24T04:22:30.076Z,101017.25
2023-06-24T04:25:58.953Z,101017.63
2023-06-24T04:29:25.971Z,101010.35
2023-06-24T04:32:52.773Z,101010.80
2023-06-24T04:36:20.593Z,101010.16
2023-06-24T04:39:47.477Z,101006.78
2023-06-24T04:43:14.118Z,101001.36
2023-06-24T04:46:41.359Z,100995.45
2023-06-24T04:50:10.902Z,100995.60
2023-06-24T04:53:37.809Z,101003.77
2023-06-24T04:57:05.612Z,100999.77
2023-06-24T05:00:32.252Z,101001.45
2023-06-24T05:03:58.900Z,101000.46
2023-06-24T05:07:25.470Z,101001.70
2023-06-24T05:10:51.963Z,101002.41
2023-06-24T05:14:18.601Z,101001.81
2023-06-24T05:17:45.295Z,101000.40
2023-06-24T05:21:12.101Z,100998.89
2023-06-24T05:24:39.048Z,101002.69
2023-06-24T05:28:06.066Z,101010.30
2023-06-24T05:31:32.864Z,101009.06
2023-06-24T05:35:00.214Z,101004.71
2023-06-24T05:38:26.971Z,101000.96
2023-06-24T05:41:54.320Z,101001.10
2023-06-24T05:45:20.966Z,101000.27
2023-06-24T05:48:48.184Z,101001.46
2023-06-24T05:52:14.784Z,101000.81
2023-06-24T05:55:41.538Z,100999.55
2023-06-24T05:59:08.123Z,101006.91
2023-06-24T06:02:35.055Z,101003.22
2023-06-24T06:06:02.571Z,101002.61
2023-06-24T06:09:29.663Z,101001.26
2023-06-24T06:12:56.682Z,101008.83
2023-06-24T06:16:23.314Z,101010.31
2023-06-24T06:19:52.366Z,101006.56
2023-06-24T06:23:20.620Z,101000.30
2023-06-24T06:26:48.184Z,101001.85
2023-06-24T06:30:18.925Z,101005.33
2023-06-24T06:33:46.048Z,101011.98
2023-06-24T06:37:13.340Z,101009.52
2023-06-24T06:40:40.084Z,101007.94
2023-06-24T06:44:07.606Z,101010.52
2023-06-24T06:47:34.557Z,101005.55
2023-06-24T06:51:01.255Z,101000.08
2023-06-24T06:54:27.903Z,101001.48
2023-06-24T06:57:55.333Z,101007.30
2023-06-24T07:01:22.181Z,100994.61
2023-06-24T07:04:49.598Z,101003.88
2023-06-24T07:08:16.529Z,101000.73
2023-06-24T07:11:43.159Z,101001.93
2023-06-24T07:15:13.157Z,100996.56
2023-06-24T07:18:40.451Z,100998.13
2023-06-24T07:22:07.715Z,100999.39
2023-06-24T07:25:36.096Z,101007.71
2023-06-24T07:29:09.226Z,101007.08
2023-06-24T07:32:34.980Z,101010.73
2023-06-24T07:36:01.857Z,101012.34
2023-06-24T07:39:29.056Z,101007.03
2023-06-24T07:42:55.644Z,101006.06
2023-06-24T07:46:22.694Z,101006.54
2023-06-24T07:49:49.617Z,101007.82
2023-06-24T07:53:17.381Z,101011.96
2023-06-24T07:56:44.054Z,101013.16
2023-06-24T08:00:13.894Z,101023.69
2023-06-24T08:03:40.925Z,101023.84
2023-06-24T08:07:09.500Z,101023.79
2023-06-24T08:10:36.824Z,101026.27
2023-06-24T08:14:05.374Z,101032.10
2023-06-24T08:17:32.260Z,101033.84
2023-06-24T08:21:00.195Z,101032.50
2023-06-24T08:24:27.176Z,101031.30
2023-06-24T08:27:53.929Z,101038.86
2023-06-24T08:31:24.068Z,101041.55
2023-06-24T08:34:51.233Z,101046.88
2023-06-24T08:38:18.999Z,101047.96
2023-06-24T08:41:46.144Z,101052.56
2023-06-24T08:45:14.298Z,101049.50
2023-06-24T08:48:45.128Z,101050.14
2023-06-24T08:52:17.707Z,101045.71
2023-06-24T08:55:48.862Z,101044.90
2023-06-24T08:59:20.739Z,101048.16
2023-06-24T09:02:48.110Z,101047.14
2023-06-24T09:06:15.216Z,101043.70
2023-06-24T09:09:47.743Z,101039.13
2023-06-24T09:13:14.870Z,101045.98
2023-06-24T09:16:41.810Z,101044.01
2023-06-24T09:20:12.384Z,101044.27
2023-06-24T09:23:41.359Z,101041.75
2023-06-24T09:27:12.763Z,101036.81
2023-06-24T09:30:40.437Z,101039.43
2023-06-24T09:34:07.840Z,101041.52
2023-06-24T09:37:37.381Z,101043.31
2023-06-24T09:41:13.711Z,101045.27
2023-06-24T09:44:41.587Z,101043.26
2023-06-24T09:48:09.379Z,101036.33
2023-06-24T09:51:40.460Z,101038.85
2023-06-24T09:55:13.402Z,101038.93
2023-06-24T09:58:43.748Z,101034.92
2023-06-24T10:02:16.759Z,101032.92
2023-06-24T10:05:45.571Z,101032.95
2023-06-24T10:09:16.732Z,101030.92
2023-06-24T10:12:45.780Z,101031.34
2023-06-24T10:16:13.046Z,101030.78
2023-06-24T10:19:44.266Z,101027.14
2023-06-24T10:23:11.811Z,101029.02
2023-06-24T10:26:42.646Z,101023.85
2023-06-24T10:30:19.285Z,101027.42
2023-06-24T10:33:55.412Z,101023.23
2023-06-24T10:37:26.026Z,101022.62
2023-06-24T10:40:53.664Z,101014.83
2023-06-24T10:44:21.866Z,101021.04
2023-06-24T10:47:50.083Z,101012.27
2023-06-24T10:51:17.751Z,101013.42
2023-06-24T10:54:45.348Z,101016.60
2023-06-24T10:58:16.857Z,101009.86
2023-06-24T11:01:57.325Z,101002.10
2023-06-24T11:05:24.138Z,101010.50
2023-06-24T11:08:52.056Z,101009.75
2023-06-24T11:12:19.188Z,101009.11
2023-06-24T11:15:46.845Z,101009.30
2023-06-24T11:19:14.045Z,101006.29
2023-06-24T11:22:41.871Z,101002.24
2023-06-24T11:26:09.347Z,100999.13
2023-06-24T11:29:37.042Z,101002.35
2023-06-24T11:33:04.198Z,101002.79
2023-06-24T11:36:31.673Z,101003.23
2023-06-24T11:40:07.384Z,101001.86
2023-06-24T11:43:34.541Z,101000.70
2023-06-24T11:47:14.507Z,101002.71
2023-06-24T11:50:41.662Z,101003.73
2023-06-24T11:54:09.584Z,101008.98
2023-06-24T11:57:54.679Z,101006.80
2023-06-24T12:01:22.133Z,101009.25
2023-06-24T12:04:50.464Z,101003.37
2023-06-24T12:08:18.141Z,101001.08
2023-06-24T12:11:45.349Z,101004.04
2023-06-24T12:15:13.117Z,101001.00
2023-06-24T12:18:40.003Z,101006.86
2023-06-24T12:22:07.306Z,100999.34
2023-06-24T12:25:34.730Z,100979.42
2023-06-24T12:29:01.858Z,100986.24
2023-06-24T12:32:28.662Z,100986.30
2023-06-24T12:35:55.957Z,100986.59
2023-06-24T12:39:22.809Z,100977.48
2023-06-24T12:42:49.937Z,100976.77
2023-06-24T12:46:17.575Z,100977.28
2023-06-24T12:49:46.486Z,100976.66
2023-06-24T12:53:21.450Z,100979.58
2023-06-24T12:56:49.198Z,100985.08
2023-06-24T13:00:21.736Z,100983.30
2023-06-24T13:03:48.659Z,100982.71
2023-06-24T13:07:17.155Z,100984.21
2023-06-24T13:10:45.394Z,100984.45
2023-06-24T13:14:12.474Z,100979.67
2023-06-24T13:17:39.656Z,100980.52
2023-06-24T13:21:15.635Z,100983.66
2023-06-24T13:24:43.768Z,100983.23
2023-06-24T13:28:10.620Z,100982.44
2023-06-24T13:31:37.680Z,100987.27
2023-06-24T13:35:08.445Z,100985.81
2023-06-24T13:38:35.700Z,100986.10
2023-06-24T13:42:03.181Z,100982.44
2023-06-24T13:45:30.050Z,100984.97
2023-06-24T13:48:57.758Z,100982.02
2023-06-24T13:52:24.754Z,100978.13
2023-06-24T13:55:55.023Z,100973.91
2023-06-24T13:59:22.612Z,100979.86
2023-06-24T14:02:49.590Z,100983.45
2023-06-24T14:06:21.012Z,100982.11
2023-06-24T14:09:48.596Z,100977.11
2023-06-24T14:13:18.299Z,100980.54
2023-06-24T14:16:45.658Z,100980.19
2023-06-24T14:20:14.590Z,100986.68
2023-06-24T14:23:42.492Z,100983.76
2023-06-24T14:27:11.392Z,100983.42
2023-06-24T14:30:39.101Z,100977.66
2023-06-24T14:34:06.529Z,100966.18
2023-06-24T14:37:34.543Z,100978.38
2023-06-24T14:41:01.856Z,100973.89
2023-06-24T14:44:29.941Z,100976.88
2023-06-24T14:47:58.891Z,100972.75
2023-06-24T14:51:28.304Z,100971.79
2023-06-24T14:55:11.230Z,100973.41
2023-06-24T14:58:38.797Z,100967.87
2023-06-24T15:02:07.047Z,100964.13
2023-06-24T15:05:35.934Z,100970.69
2023-06-24T15:09:03.564Z,100970.55
2023-06-24T15:12:30.528Z,100966.42
2023-06-24T15:15:57.999Z,100962.26
2023-06-24T15:19:24.602Z,100962.04
2023-06-24T15:22:51.918Z,100962.84
2023-06-24T15:26:19.015Z,100954.95
2023-06-24T15:29:46.076Z,100950.02
2023-06-24T15:33:12.874Z,100955.27
2023-06-24T15:36:41.762Z,100953.17
2023-06-24T15:40:11.288Z,100950.78
2023-06-24T15:43:39.028Z,100949.61
2023-06-24T15:47:07.303Z,100943.45
2023-06-24T15:50:34.388Z,100943.54
2023-06-24T15:54:01.462Z,100940.89
2023-06-24T15:57:28.512Z,100946.68
2023-06-24T16:00:55.860Z,100943.11
2023-06-24T16:04:23.153Z,100942.98
2023-06-24T16:07:51.059Z,100945.52
2023-06-24T16:11:18.498Z,100942.19
2023-06-24T16:14:46.093Z,100943.30
2023-06-24T16:18:12.977Z,100946.52
2023-06-24T16:21:39.635Z,100951.25
2023-06-24T16:25:07.012Z,100952.74
2023-06-24T16:28:34.054Z,100951.75
2023-06-24T16:32:03.394Z,100953.27
2023-06-24T16:35:30.822Z,100953.72
2023-06-24T16:38:58.004Z,100955.65
2023-06-24T16:42:28.105Z,100952.39
2023-06-24T16:45:55.814Z,100951.88
2023-06-24T16:49:25.884Z,100950.56
2023-06-24T16:52:53.158Z,100950.77
2023-06-24T16:56:19.810Z,100947.15
2023-06-24T16:59:47.235Z,100950.31
2023-06-24T17:03:15.186Z,100954.16
2023-06-24T17:06:43.508Z,100955.98
2023-06-24T17:10:14.788Z,100957.80
2023-06-24T17:13:41.444Z,100957.13
2023-06-24T17:17:08.406Z,100957.04
2023-06-24T17:20:36.021Z,100951.98
2023-06-24T17:24:03.346Z,100952.27
2023-06-24T17:27:30.232Z,100954.41
2023-06-24T17:30:57.301Z,100951.25
2023-06-24T17:34:25.362Z,100953.73
2023-06-24T17:37:52.259Z,100951.65
2023-06-24T17:41:24.514Z,100953.78
2023-06-24T17:44:51.452Z,100957.00
2023-06-24T17:48:18.598Z,100958.34
2023-06-24T17:51:45.760Z,100966.02
2023-06-24T17:55:13.071Z,100967.81
2023-06-24T17:58:39.569Z,100970.25
2023-06-24T18:02:06.927Z,100973.50
2023-06-24T18:05:34.302Z,100970.88
2023-06-24T18:09:01.445Z,100973.05
2023-06-24T18:12:28.899Z,100973.86
2023-06-24T18:15:56.120Z,100972.14
2023-06-24T18:19:23.929Z,100970.27
2023-06-24T18:22:51.715Z,100972.20
2023-06-24T18:26:18.780Z,100971.96
2023-06-24T18:29:45.733Z,100974.36
2023-06-24T18:33:12.675Z,100973.80
2023-06-24T18:36:39.834Z,100974.99
2023-06-24T18:40:09.232Z,100976.69
2023-06-24T18:43:36.192Z,100973.39
2023-06-24T18:47:03.405Z,100977.77
2023-06-24T18:50:30.291Z,100984.77
2023-06-24T18:53:57.879Z,100986.52
2023-06-24T18:57:25.338Z,100985.69
2023-06-24T19:00:54.031Z,100991.48
2023-06-24T19:04:24.870Z,100990.41
2023-06-24T19:07:52.570Z,100993.44
2023-06-24T19:11:21.238Z,100994.78
2023-06-24T19:14:49.630Z,100994.61
2023-06-24T19:18:18.109Z,100995.14
2023-06-24T19:21:46.174Z,100998.11
2023-06-24T19:25:15.049Z,101003.88
2023-06-24T19:28:42.285Z,101005.48
2023-06-24T19:32:10.885Z,101003.06
2023-06-24T19:35:38.041Z,101009.91
2023-06-24T19:39:04.913Z,101011.55
2023-06-24T19:42:32.664Z,101011.52
2023-06-24T19:45:59.891Z,101014.55
2023-06-24T19:49:27.357Z,101016.09
2023-06-24T19:52:55.116Z,101021.09
2023-06-24T19:56:21.876Z,101022.51
2023-06-24T19:59:49.699Z,101026.00
2023-06-24T20:03:16.985Z,101029.21
2023-06-24T20:06:44.595Z,101030.66
2023-06-24T20:10:14.198Z,101029.75
2023-06-24T20:13:41.325Z,101030.40
2023-06-24T20:17:09.783Z,101029.84
2023-06-24T20:20:37.137Z,101035.42
2023-06-24T20:24:07.472Z,101036.04
2023-06-24T20:27:35.527Z,101040.05
2023-06-24T20:31:04.154Z,101036.38
2023-06-24T20:34:30.696Z,101038.92
2023-06-24T20:37:57.232Z,101043.00
2023-06-24T20:41:28.938Z,101039.83
2023-06-24T20:44:55.965Z,101038.20
2023-06-24T20:48:25.236Z,101047.02
2023-06-24T20:51:53.263Z,101047.21
2023-06-24T20:55:22.181Z,101050.71
2023-06-24T20:58:49.293Z,101051.39
2023-06-24T21:02:17.009Z,101051.48
2023-06-24T21:05:48.543Z,101052.20
2023-06-24T21:09:21.190Z,101054.03
2023-06-24T21:16:21.206Z,101054.89
2023-06-24T21:19:49.072Z,101058.27
2023-06-24T21:23:17.149Z,101060.52
2023-06-24T21:26:46.715Z,101061.18
2023-06-24T21:30:16.446Z,101060.34
2023-06-24T21:33:44.614Z,101060.95
2023-06-24T21:37:12.065Z,101062.98
2023-06-24T21:40:39.620Z,101065.01
2023-06-24T21:44:07.291Z,101068.25
2023-06-24T21:47:34.312Z,101070.71
2023-06-24T21:51:02.063Z,101073.41
2023-06-24T21:54:29.526Z,101079.04
2023-06-24T21:57:57.810Z,101083.50
2023-06-24T22:01:26.190Z,101083.21
2023-06-24T22:04:52.909Z,101086.61
2023-06-24T22:08:20.826Z,101084.96
2023-06-24T22:11:48.469Z,101089.40
2023-06-24T22:15:16.144Z,101092.66
2023-06-24T22:18:43.033Z,101091.58
2023-06-24T22:22:11.101Z,101091.63
2023-06-24T22:25:42.598Z,101089.25
2023-06-24T22:29:12.513Z,101090.08
2023-06-24T22:32:39.886Z,101092.80
2023-06-24T22:36:07.227Z,101083.45
2023-06-24T22:39:34.381Z,101085.86
2023-06-24T22:43:02.569Z,101086.01
2023-06-24T22:46:29.758Z,101085.08
2023-06-24T22:49:56.428Z,101084.56
2023-06-24T22:53:23.730Z,101083.55
2023-06-24T22:56:51.346Z,101082.64
2023-06-24T23:00:20.077Z,101085.13
2023-06-24T23:03:51.923Z,101088.35
2023-06-24T23:07:20.029Z,101091.00
2023-06-24T23:10:48.252Z,101088.80
2023-06-24T23:14:15.954Z,101089.48
2023-06-24T23:17:43.298Z,101089.66
2023-06-24T23:21:12.875Z,101089.77
2023-06-24T23:24:40.554Z,101088.76
2023-06-24T23:28:07.178Z,101092.46
2023-06-24T23:31:40.053Z,101088.10
2023-06-24T23:35:09.117Z,101089.61
2023-06-24T23:38:37.661Z,101088.16
2023-06-24T23:42:06.922Z,101093.02
2023-06-24T23:45:34.733Z,101096.08
2023-06-24T23:49:01.754Z,101089.27
2023-06-24T23:52:28.437Z,101082.66
2023-06-24T23:55:55.923Z,101082.10
2023-06-24T23:59:23.815Z,101082.31
